Pyxis Ocean — 9V2598 — position and weather

sailwx.info

Track history (hours):
 
Tides and Currents Weather Stations Pressure Air Temp Water Temp Dewpoint Dewpoint Depression Visibility Wind Speed Wind Dir Waves Ship Positions

Pyxis Ocean

Last reported at 2018-Jan-19 17:42 UTC. Time now 2018-Jan-21 08:26 UTC.
Position N 60°39' E 004°11'.

Length 229 m; draft 8.9 m.

Type: Cargo ship. MMSI: 563021600.

Date/timePositionNaut miles runAvg speedWind from/ knotsBaromVisibWave heightAir tempDewpointWater temp
2018-Jan-19 17:42N 60°39' E 004°11'314.3
2018-Jan-19 17:30N 60°36' E 004°11'714.7
2018-Jan-19 17:00N 60°29' E 004°12'714.4
2018-Jan-19 16:30N 60°22' E 004°10'9714.0
2018-Jan-19 09:33N 58°44' E 004°20'114.0
2018-Jan-19 09:27N 58°43' E 004°21'914.2
2018-Jan-19 08:51N 58°36' E 004°28'514.5
2018-Jan-19 08:30N 58°31' E 004°32'16913.5
2018-Jan-18 19:57N 55°50' E 006°08'614.2
2018-Jan-18 19:29N 55°44' E 006°09'713.5
2018-Jan-18 18:59N 55°37' E 006°07'714.4
2018-Jan-18 18:29N 55°31' E 006°00'24513.3
2018-Jan-18 00:02N 51°47' E 003°12'610.2
2018-Jan-17 23:29N 51°41' E 003°13'  
Track history (hours):
 
Tides and Currents Weather Stations Pressure Air Temp Water Temp Dewpoint Dewpoint Depression Visibility Wind Speed Wind Dir Waves Ship Positions

Pyxis Ocean

Last reported at 2018-Jan-19 17:42 UTC. Time now 2018-Jan-21 08:26 UTC.
Position N 60°39' E 004°11'.

Length 229 m; draft 8.9 m.

Type: Cargo ship. MMSI: 563021600.

Date/timePositionNaut miles runAvg speedWind from/ knotsBaromVisibWave heightAir tempDewpointWater temp
2018-Jan-19 17:42N 60°39' E 004°11'314.3
2018-Jan-19 17:30N 60°36' E 004°11'714.7
2018-Jan-19 17:00N 60°29' E 004°12'714.4
2018-Jan-19 16:30N 60°22' E 004°10'9714.0
2018-Jan-19 09:33N 58°44' E 004°20'114.0
2018-Jan-19 09:27N 58°43' E 004°21'914.2
2018-Jan-19 08:51N 58°36' E 004°28'514.5
2018-Jan-19 08:30N 58°31' E 004°32'16913.5
2018-Jan-18 19:57N 55°50' E 006°08'614.2
2018-Jan-18 19:29N 55°44' E 006°09'713.5
2018-Jan-18 18:59N 55°37' E 006°07'714.4
2018-Jan-18 18:29N 55°31' E 006°00'24513.3
2018-Jan-18 00:02N 51°47' E 003°12'610.2
2018-Jan-17 23:29N 51°41' E 003°13'  

Dump ship's entire track history